THY88 EDDF-EGLL
Flight info
| Callsign | THY88 |
|---|---|
| Flight time | 1h 16m |
| Altitude | 40000 |
| Route | SOBRA2L/18 SOBRA DCT MAVEP DCT LEDMU DCT ULTAV DCT ZAGRE DCT EGZOV DCT HELEN DCT KEGIT DCT SUMUM DCT LOGAN |
| Aircraft | A359/H-SDE2E3GHIJ1J3J4J5LM1ORWXY/LB1D1 |
Departure
| Time | 2026-05-05 12:12 |
|---|---|
| Airport | Frankfurt Main Airport (EDDF) |
Arrival
| Time | 2026-05-05 13:28 |
|---|---|
| Airport | London Heathrow Airport (EGLL) |
| Time | Latitude | Longitude | Altitude | Speed | Heading |
|---|---|---|---|---|---|
| 2026-05-05 11:31 | 50.04803 | 8.56593 | 365 ft | 0 kts | 343° |
| 2026-05-05 11:56 | 50.04792 | 8.56598 | 367 ft | 2 kts | 343° |
| 2026-05-05 11:56 | 50.04776 | 8.56605 | 367 ft | 2 kts | 343° |
| 2026-05-05 11:56 | 50.04760 | 8.56612 | 369 ft | 2 kts | 345° |
| 2026-05-05 11:56 | 50.04744 | 8.56617 | 369 ft | 2 kts | 359° |
| 2026-05-05 11:57 | 50.04730 | 8.56607 | 371 ft | 2 kts | 49° |
| 2026-05-05 11:57 | 50.04720 | 8.56587 | 370 ft | 2 kts | 56° |
| 2026-05-05 11:57 | 50.04717 | 8.56580 | 370 ft | 2 kts | 54° |
| 2026-05-05 11:57 | 50.04713 | 8.56572 | 365 ft | 2 kts | 52° |
| 2026-05-05 11:58 | 50.04702 | 8.56554 | 364 ft | 2 kts | 24° |
| 2026-05-05 11:58 | 50.04687 | 8.56543 | 369 ft | 2 kts | 27° |
| 2026-05-05 11:58 | 50.04673 | 8.56532 | 366 ft | 2 kts | 27° |
| 2026-05-05 11:58 | 50.04658 | 8.56520 | 366 ft | 2 kts | 27° |
| 2026-05-05 11:59 | 50.04643 | 8.56509 | 367 ft | 2 kts | 26° |
| 2026-05-05 11:59 | 50.04635 | 8.56502 | 367 ft | 2 kts | 26° |
| 2026-05-05 11:59 | 50.04620 | 8.56491 | 368 ft | 2 kts | 26° |
| 2026-05-05 11:59 | 50.04605 | 8.56480 | 365 ft | 2 kts | 24° |
| 2026-05-05 12:00 | 50.04591 | 8.56469 | 364 ft | 2 kts | 26° |
| 2026-05-05 12:00 | 50.04576 | 8.56458 | 368 ft | 2 kts | 26° |
| 2026-05-05 12:00 | 50.04570 | 8.56454 | 363 ft | 0 kts | 24° |
| 2026-05-05 12:03 | 50.04586 | 8.56465 | 362 ft | 6 kts | 25° |
| 2026-05-05 12:03 | 50.04627 | 8.56471 | 365 ft | 6 kts | 345° |
| 2026-05-05 12:03 | 50.04652 | 8.56409 | 370 ft | 9 kts | 279° |
| 2026-05-05 12:04 | 50.04639 | 8.56317 | 370 ft | 9 kts | 250° |
| 2026-05-05 12:04 | 50.04614 | 8.56212 | 370 ft | 11 kts | 250° |
| 2026-05-05 12:04 | 50.04585 | 8.56091 | 370 ft | 12 kts | 250° |
| 2026-05-05 12:04 | 50.04556 | 8.55994 | 372 ft | 8 kts | 233° |
| 2026-05-05 12:05 | 50.04498 | 8.55942 | 370 ft | 12 kts | 193° |
| 2026-05-05 12:05 | 50.04407 | 8.55911 | 367 ft | 15 kts | 186° |
| 2026-05-05 12:05 | 50.04312 | 8.55947 | 362 ft | 13 kts | 156° |
| 2026-05-05 12:05 | 50.04261 | 8.55959 | 362 ft | 0 kts | 195° |
| 2026-05-05 12:06 | 50.04251 | 8.55948 | 362 ft | 7 kts | 220° |
| 2026-05-05 12:06 | 50.04226 | 8.55874 | 366 ft | 17 kts | 248° |
| 2026-05-05 12:06 | 50.04171 | 8.55657 | 365 ft | 21 kts | 250° |
| 2026-05-05 12:06 | 50.04119 | 8.55440 | 369 ft | 22 kts | 249° |
| 2026-05-05 12:07 | 50.04068 | 8.55229 | 370 ft | 20 kts | 249° |
| 2026-05-05 12:07 | 50.04019 | 8.55017 | 372 ft | 21 kts | 250° |
| 2026-05-05 12:07 | 50.03967 | 8.54798 | 370 ft | 23 kts | 249° |
| 2026-05-05 12:07 | 50.03908 | 8.54561 | 371 ft | 23 kts | 250° |
| 2026-05-05 12:08 | 50.03854 | 8.54358 | 373 ft | 16 kts | 238° |
| 2026-05-05 12:08 | 50.03807 | 8.54244 | 376 ft | 11 kts | 244° |
| 2026-05-05 12:08 | 50.03778 | 8.54132 | 373 ft | 12 kts | 249° |
| 2026-05-05 12:08 | 50.03746 | 8.54000 | 373 ft | 14 kts | 249° |
| 2026-05-05 12:09 | 50.03710 | 8.53851 | 373 ft | 15 kts | 250° |
| 2026-05-05 12:09 | 50.03669 | 8.53681 | 374 ft | 18 kts | 249° |
| 2026-05-05 12:09 | 50.03624 | 8.53496 | 373 ft | 18 kts | 249° |
| 2026-05-05 12:09 | 50.03579 | 8.53309 | 374 ft | 19 kts | 250° |
| 2026-05-05 12:10 | 50.03534 | 8.53121 | 375 ft | 19 kts | 250° |
| 2026-05-05 12:10 | 50.03491 | 8.52939 | 378 ft | 16 kts | 249° |
| 2026-05-05 12:10 | 50.03456 | 8.52803 | 383 ft | 11 kts | 247° |
| 2026-05-05 12:10 | 50.03428 | 8.52702 | 386 ft | 10 kts | 247° |
| 2026-05-05 12:11 | 50.03398 | 8.52612 | 385 ft | 9 kts | 226° |
| 2026-05-05 12:11 | 50.03317 | 8.52594 | 381 ft | 22 kts | 179° |
| 2026-05-05 12:11 | 50.02970 | 8.52601 | 373 ft | 83 kts | 180° |
| 2026-05-05 12:11 | 50.02195 | 8.52606 | 374 ft | 139 kts | 179° |
| 2026-05-05 12:12 | 50.01095 | 8.52625 | 689 ft | 158 kts | 180° |
| 2026-05-05 12:12 | 50.00041 | 8.52640 | 1448 ft | 150 kts | 181° |
| 2026-05-05 12:12 | 49.99062 | 8.51942 | 1705 ft | 171 kts | 230° |
| 2026-05-05 12:12 | 49.98501 | 8.50219 | 1926 ft | 188 kts | 242° |
| 2026-05-05 12:13 | 49.98319 | 8.48108 | 2238 ft | 198 kts | 256° |
| 2026-05-05 12:13 | 49.97337 | 8.47032 | 3111 ft | 175 kts | 179° |
| 2026-05-05 12:13 | 49.96313 | 8.47841 | 3814 ft | 170 kts | 133° |
| 2026-05-05 12:13 | 49.95446 | 8.49249 | 4169 ft | 194 kts | 142° |
| 2026-05-05 12:14 | 49.94190 | 8.50391 | 4374 ft | 222 kts | 156° |
| 2026-05-05 12:14 | 49.92764 | 8.51399 | 4601 ft | 233 kts | 157° |
| 2026-05-05 12:14 | 49.91275 | 8.52414 | 4848 ft | 235 kts | 157° |
| 2026-05-05 12:14 | 49.89706 | 8.53128 | 5106 ft | 236 kts | 175° |
| 2026-05-05 12:15 | 49.88069 | 8.53284 | 5847 ft | 236 kts | 180° |
| 2026-05-05 12:15 | 49.86463 | 8.52902 | 6656 ft | 233 kts | 196° |
| 2026-05-05 12:15 | 49.84916 | 8.52105 | 7389 ft | 236 kts | 199° |
| 2026-05-05 12:15 | 49.83363 | 8.51239 | 8119 ft | 239 kts | 199° |
| 2026-05-05 12:16 | 49.81813 | 8.50367 | 8862 ft | 241 kts | 199° |
| 2026-05-05 12:16 | 49.80184 | 8.49450 | 9339 ft | 260 kts | 199° |
| 2026-05-05 12:16 | 49.78461 | 8.48358 | 9835 ft | 274 kts | 207° |
| 2026-05-05 12:16 | 49.76937 | 8.46484 | 10268 ft | 292 kts | 229° |
| 2026-05-05 12:17 | 49.76020 | 8.43563 | 10569 ft | 317 kts | 257° |
| 2026-05-05 12:17 | 49.76064 | 8.40057 | 10939 ft | 339 kts | 280° |
| 2026-05-05 12:17 | 49.76646 | 8.36426 | 11458 ft | 355 kts | 283° |
| 2026-05-05 12:17 | 49.77295 | 8.32690 | 12109 ft | 363 kts | 283° |
| 2026-05-05 12:18 | 49.77937 | 8.28873 | 12719 ft | 368 kts | 283° |
| 2026-05-05 12:18 | 49.78570 | 8.25020 | 13498 ft | 371 kts | 282° |
| 2026-05-05 12:18 | 49.79194 | 8.21197 | 14210 ft | 373 kts | 282° |
| 2026-05-05 12:18 | 49.79824 | 8.17293 | 14938 ft | 375 kts | 282° |
| 2026-05-05 12:19 | 49.80451 | 8.13376 | 15691 ft | 375 kts | 282° |
| 2026-05-05 12:19 | 49.81080 | 8.09459 | 16461 ft | 375 kts | 282° |
| 2026-05-05 12:19 | 49.81703 | 8.05537 | 17255 ft | 375 kts | 281° |
| 2026-05-05 12:19 | 49.82324 | 8.01611 | 18044 ft | 375 kts | 281° |
| 2026-05-05 12:20 | 49.82944 | 7.97686 | 18727 ft | 377 kts | 281° |
| 2026-05-05 12:20 | 49.83567 | 7.93708 | 19232 ft | 384 kts | 281° |
| 2026-05-05 12:20 | 49.84204 | 7.89638 | 19706 ft | 393 kts | 281° |
| 2026-05-05 12:20 | 49.84845 | 7.85547 | 20183 ft | 399 kts | 281° |
| 2026-05-05 12:21 | 49.85501 | 7.81334 | 20684 ft | 405 kts | 281° |
| 2026-05-05 12:21 | 49.86166 | 7.77056 | 21185 ft | 411 kts | 281° |
| 2026-05-05 12:21 | 49.86849 | 7.72721 | 21716 ft | 417 kts | 281° |
| 2026-05-05 12:21 | 49.87545 | 7.68329 | 22236 ft | 422 kts | 282° |
| 2026-05-05 12:22 | 49.88237 | 7.63885 | 22779 ft | 426 kts | 281° |
| 2026-05-05 12:22 | 49.88928 | 7.59389 | 23328 ft | 431 kts | 281° |
| 2026-05-05 12:22 | 49.89626 | 7.54849 | 23799 ft | 435 kts | 281° |
| 2026-05-05 12:22 | 49.90327 | 7.50267 | 24266 ft | 439 kts | 281° |
| 2026-05-05 12:23 | 49.91034 | 7.45647 | 24739 ft | 442 kts | 280° |
| 2026-05-05 12:23 | 49.91736 | 7.41045 | 25213 ft | 445 kts | 280° |
| 2026-05-05 12:23 | 49.92449 | 7.36364 | 25690 ft | 449 kts | 280° |
| 2026-05-05 12:23 | 49.93167 | 7.31630 | 26191 ft | 451 kts | 279° |
| 2026-05-05 12:24 | 49.93887 | 7.26880 | 26710 ft | 453 kts | 279° |
| 2026-05-05 12:24 | 49.94608 | 7.22101 | 27193 ft | 456 kts | 279° |
| 2026-05-05 12:24 | 49.95332 | 7.17297 | 27693 ft | 458 kts | 279° |
| 2026-05-05 12:24 | 49.96056 | 7.12468 | 28162 ft | 461 kts | 279° |
| 2026-05-05 12:25 | 49.96785 | 7.07596 | 28618 ft | 464 kts | 279° |
| 2026-05-05 12:25 | 49.97504 | 7.02773 | 29060 ft | 466 kts | 278° |
| 2026-05-05 12:25 | 49.98233 | 6.97867 | 29492 ft | 468 kts | 278° |
| 2026-05-05 12:25 | 49.98892 | 6.92912 | 29921 ft | 467 kts | 274° |
| 2026-05-05 12:26 | 49.99140 | 6.87919 | 30440 ft | 460 kts | 265° |
| 2026-05-05 12:26 | 49.99110 | 6.82935 | 30727 ft | 463 kts | 264° |
| 2026-05-05 12:26 | 49.99004 | 6.77941 | 31152 ft | 462 kts | 263° |
| 2026-05-05 12:26 | 49.98859 | 6.72981 | 31664 ft | 460 kts | 263° |
| 2026-05-05 12:27 | 49.98700 | 6.68016 | 32195 ft | 457 kts | 262° |
| 2026-05-05 12:27 | 49.98538 | 6.63103 | 32731 ft | 454 kts | 262° |
| 2026-05-05 12:27 | 49.98378 | 6.58222 | 33276 ft | 450 kts | 262° |
| 2026-05-05 12:27 | 49.98223 | 6.53379 | 33759 ft | 448 kts | 261° |
| 2026-05-05 12:28 | 49.98071 | 6.48601 | 34016 ft | 450 kts | 261° |
| 2026-05-05 12:28 | 49.97912 | 6.43741 | 34250 ft | 451 kts | 261° |
| 2026-05-05 12:28 | 49.97750 | 6.38865 | 34495 ft | 453 kts | 262° |
| 2026-05-05 12:28 | 49.97587 | 6.33973 | 34780 ft | 454 kts | 262° |
| 2026-05-05 12:29 | 49.97423 | 6.29070 | 35015 ft | 455 kts | 262° |
| 2026-05-05 12:29 | 49.97258 | 6.24166 | 35252 ft | 456 kts | 262° |
| 2026-05-05 12:29 | 49.97092 | 6.19254 | 35511 ft | 456 kts | 262° |
| 2026-05-05 12:29 | 49.96922 | 6.14310 | 35763 ft | 457 kts | 262° |
| 2026-05-05 12:30 | 49.96744 | 6.09379 | 36015 ft | 457 kts | 262° |
| 2026-05-05 12:30 | 49.96710 | 6.04497 | 36268 ft | 461 kts | 270° |
| 2026-05-05 12:30 | 49.97184 | 5.99556 | 36567 ft | 466 kts | 280° |
| 2026-05-05 12:30 | 49.98250 | 5.94766 | 36679 ft | 475 kts | 291° |
| 2026-05-05 12:31 | 49.99964 | 5.90323 | 36775 ft | 484 kts | 304° |
| 2026-05-05 12:31 | 50.02280 | 5.86497 | 36860 ft | 492 kts | 317° |
| 2026-05-05 12:31 | 50.05036 | 5.83296 | 36973 ft | 497 kts | 323° |
| 2026-05-05 12:31 | 50.07794 | 5.80054 | 37066 ft | 497 kts | 316° |
| 2026-05-05 12:32 | 50.10374 | 5.76499 | 37246 ft | 497 kts | 315° |
| 2026-05-05 12:32 | 50.12928 | 5.72861 | 37434 ft | 497 kts | 314° |
| 2026-05-05 12:32 | 50.15419 | 5.69219 | 37630 ft | 497 kts | 314° |
| 2026-05-05 12:32 | 50.17913 | 5.65504 | 37850 ft | 496 kts | 313° |
| 2026-05-05 12:33 | 50.20396 | 5.61759 | 38064 ft | 496 kts | 313° |
| 2026-05-05 12:33 | 50.22878 | 5.57995 | 38261 ft | 496 kts | 313° |
| 2026-05-05 12:33 | 50.25340 | 5.54252 | 38529 ft | 494 kts | 313° |
| 2026-05-05 12:33 | 50.27801 | 5.50507 | 38762 ft | 492 kts | 313° |
| 2026-05-05 12:34 | 50.30246 | 5.46785 | 38988 ft | 490 kts | 313° |
| 2026-05-05 12:34 | 50.32680 | 5.43077 | 39218 ft | 487 kts | 313° |
| 2026-05-05 12:34 | 50.35100 | 5.39386 | 39449 ft | 484 kts | 313° |
| 2026-05-05 12:34 | 50.37505 | 5.35714 | 39685 ft | 481 kts | 313° |
| 2026-05-05 12:35 | 50.39896 | 5.32058 | 39858 ft | 480 kts | 313° |
| 2026-05-05 12:35 | 50.42285 | 5.28397 | 39877 ft | 482 kts | 313° |
| 2026-05-05 12:35 | 50.47104 | 5.20995 | 39877 ft | 487 kts | 313° |
| 2026-05-05 12:36 | 50.51976 | 5.13489 | 39884 ft | 494 kts | 313° |
| 2026-05-05 12:36 | 50.56860 | 5.05958 | 39886 ft | 494 kts | 313° |
| 2026-05-05 12:37 | 50.61751 | 4.98388 | 39891 ft | 492 kts | 313° |
| 2026-05-05 12:37 | 50.66623 | 4.90812 | 39893 ft | 492 kts | 312° |
| 2026-05-05 12:38 | 50.71503 | 4.83221 | 39897 ft | 492 kts | 313° |
| 2026-05-05 12:38 | 50.76371 | 4.75621 | 39897 ft | 492 kts | 313° |
| 2026-05-05 12:39 | 50.81232 | 4.68010 | 39918 ft | 491 kts | 313° |
| 2026-05-05 12:39 | 50.86034 | 4.60458 | 39912 ft | 490 kts | 313° |
| 2026-05-05 12:40 | 50.90580 | 4.52493 | 39913 ft | 486 kts | 302° |
| 2026-05-05 12:40 | 50.94246 | 4.43526 | 39912 ft | 484 kts | 299° |
| 2026-05-05 12:41 | 50.97748 | 4.34397 | 39911 ft | 484 kts | 298° |
| 2026-05-05 12:41 | 51.01220 | 4.25233 | 39912 ft | 484 kts | 298° |
| 2026-05-05 12:42 | 51.04695 | 4.16068 | 39913 ft | 484 kts | 298° |
| 2026-05-05 12:42 | 51.08148 | 4.06961 | 39912 ft | 484 kts | 298° |
| 2026-05-05 12:43 | 51.11626 | 3.97762 | 39908 ft | 484 kts | 298° |
| 2026-05-05 12:43 | 51.15087 | 3.88576 | 39906 ft | 484 kts | 298° |
| 2026-05-05 12:44 | 51.18543 | 3.79367 | 39914 ft | 484 kts | 298° |
| 2026-05-05 12:44 | 51.21994 | 3.70137 | 39907 ft | 485 kts | 298° |
| 2026-05-05 12:45 | 51.25446 | 3.60876 | 39910 ft | 486 kts | 298° |
| 2026-05-05 12:45 | 51.28866 | 3.51658 | 39913 ft | 485 kts | 298° |
| 2026-05-05 12:46 | 51.32300 | 3.42391 | 39916 ft | 484 kts | 298° |
| 2026-05-05 12:46 | 51.35392 | 3.32865 | 39926 ft | 481 kts | 290° |
| 2026-05-05 12:47 | 51.37854 | 3.22937 | 39927 ft | 479 kts | 289° |
| 2026-05-05 12:47 | 51.40188 | 3.13019 | 39935 ft | 479 kts | 288° |
| 2026-05-05 12:48 | 51.42520 | 3.03023 | 39936 ft | 479 kts | 289° |
| 2026-05-05 12:48 | 51.44855 | 2.93027 | 39936 ft | 479 kts | 289° |
| 2026-05-05 12:49 | 51.46925 | 2.84158 | 39944 ft | 480 kts | 288° |
| 2026-05-05 12:49 | 51.49198 | 2.74368 | 39940 ft | 479 kts | 288° |
| 2026-05-05 12:50 | 51.51504 | 2.64410 | 39949 ft | 479 kts | 288° |
| 2026-05-05 12:50 | 51.54147 | 2.54587 | 39950 ft | 482 kts | 298° |
| 2026-05-05 12:51 | 51.58361 | 2.46199 | 39952 ft | 487 kts | 316° |
| 2026-05-05 12:51 | 51.63721 | 2.39497 | 39961 ft | 489 kts | 321° |
| 2026-05-05 12:52 | 51.69219 | 2.33142 | 39960 ft | 490 kts | 323° |
| 2026-05-05 12:52 | 51.74519 | 2.26302 | 39967 ft | 487 kts | 310° |
| 2026-05-05 12:53 | 51.76579 | 2.22005 | 39967 ft | 483 kts | 299° |
| 2026-05-05 12:53 | 51.78057 | 2.17182 | 39882 ft | 475 kts | 288° |
| 2026-05-05 12:53 | 51.78910 | 2.12084 | 39292 ft | 472 kts | 276° |
| 2026-05-05 12:53 | 51.79069 | 2.06771 | 38457 ft | 473 kts | 264° |
| 2026-05-05 12:54 | 51.77503 | 1.96474 | 36627 ft | 476 kts | 253° |
| 2026-05-05 12:54 | 51.76846 | 1.91230 | 35831 ft | 478 kts | 261° |
| 2026-05-05 12:54 | 51.76421 | 1.85911 | 35068 ft | 478 kts | 261° |
| 2026-05-05 12:55 | 51.76045 | 1.80668 | 34349 ft | 476 kts | 262° |
| 2026-05-05 12:55 | 51.75687 | 1.75364 | 33559 ft | 475 kts | 262° |
| 2026-05-05 12:55 | 51.75340 | 1.70062 | 32608 ft | 476 kts | 262° |
| 2026-05-05 12:55 | 51.74995 | 1.64715 | 31546 ft | 480 kts | 262° |
| 2026-05-05 12:56 | 51.74651 | 1.59341 | 30521 ft | 485 kts | 262° |
| 2026-05-05 12:56 | 51.74305 | 1.53898 | 29460 ft | 488 kts | 262° |
| 2026-05-05 12:56 | 51.73954 | 1.48455 | 28507 ft | 489 kts | 262° |
| 2026-05-05 12:56 | 51.73601 | 1.43001 | 27658 ft | 487 kts | 262° |
| 2026-05-05 12:57 | 51.73247 | 1.37569 | 26799 ft | 486 kts | 262° |
| 2026-05-05 12:57 | 51.72893 | 1.32166 | 26124 ft | 482 kts | 262° |
| 2026-05-05 12:57 | 51.72544 | 1.26883 | 25464 ft | 479 kts | 262° |
| 2026-05-05 12:57 | 51.72191 | 1.21574 | 24799 ft | 476 kts | 262° |
| 2026-05-05 12:58 | 51.71840 | 1.16299 | 24139 ft | 473 kts | 262° |
| 2026-05-05 12:58 | 51.71486 | 1.11027 | 23391 ft | 471 kts | 263° |
| 2026-05-05 12:58 | 51.71130 | 1.05788 | 22645 ft | 468 kts | 262° |
| 2026-05-05 12:58 | 51.70776 | 1.00617 | 21985 ft | 462 kts | 262° |
| 2026-05-05 12:59 | 51.70421 | 0.95468 | 21283 ft | 458 kts | 262° |
| 2026-05-05 12:59 | 51.70071 | 0.90415 | 20804 ft | 449 kts | 263° |
| 2026-05-05 12:59 | 51.69725 | 0.85444 | 20175 ft | 444 kts | 263° |
| 2026-05-05 13:00 | 51.69036 | 0.75674 | 18814 ft | 439 kts | 263° |
| 2026-05-05 13:00 | 51.68692 | 0.70814 | 18154 ft | 436 kts | 263° |
| 2026-05-05 13:01 | 51.67680 | 0.56643 | 16875 ft | 406 kts | 263° |
| 2026-05-05 13:01 | 51.67357 | 0.52201 | 16634 ft | 393 kts | 263° |
| 2026-05-05 13:01 | 51.67042 | 0.47881 | 16390 ft | 382 kts | 263° |
| 2026-05-05 13:01 | 51.66739 | 0.43708 | 16162 ft | 370 kts | 263° |
| 2026-05-05 13:02 | 51.66439 | 0.39653 | 15952 ft | 359 kts | 263° |
| 2026-05-05 13:02 | 51.66146 | 0.35715 | 15738 ft | 349 kts | 263° |
| 2026-05-05 13:02 | 51.65866 | 0.31951 | 15567 ft | 338 kts | 263° |
| 2026-05-05 13:02 | 51.65589 | 0.28249 | 15356 ft | 328 kts | 263° |
| 2026-05-05 13:03 | 51.65317 | 0.24631 | 15034 ft | 324 kts | 263° |
| 2026-05-05 13:03 | 51.65049 | 0.21070 | 14786 ft | 317 kts | 263° |
| 2026-05-05 13:03 | 51.64784 | 0.17569 | 14586 ft | 314 kts | 263° |
| 2026-05-05 13:03 | 51.64522 | 0.14085 | 14397 ft | 314 kts | 264° |
| 2026-05-05 13:04 | 51.64317 | 0.10581 | 14208 ft | 313 kts | 266° |
| 2026-05-05 13:04 | 51.64143 | 0.07092 | 14014 ft | 312 kts | 266° |
| 2026-05-05 13:04 | 51.63967 | 0.03626 | 13818 ft | 310 kts | 266° |
| 2026-05-05 13:04 | 51.63784 | 0.00159 | 13607 ft | 311 kts | 266° |
| 2026-05-05 13:05 | 51.63602 | -0.03251 | 13419 ft | 309 kts | 266° |
| 2026-05-05 13:05 | 51.63414 | -0.06689 | 13238 ft | 308 kts | 266° |
| 2026-05-05 13:05 | 51.63226 | -0.10116 | 13045 ft | 307 kts | 265° |
| 2026-05-05 13:05 | 51.63036 | -0.13526 | 12862 ft | 306 kts | 265° |
| 2026-05-05 13:06 | 51.62846 | -0.16926 | 12668 ft | 304 kts | 265° |
| 2026-05-05 13:06 | 51.62656 | -0.20308 | 12472 ft | 303 kts | 265° |
| 2026-05-05 13:06 | 51.62465 | -0.23680 | 12289 ft | 302 kts | 265° |
| 2026-05-05 13:06 | 51.62274 | -0.27041 | 12099 ft | 301 kts | 265° |
| 2026-05-05 13:07 | 51.62082 | -0.30395 | 11904 ft | 301 kts | 265° |
| 2026-05-05 13:07 | 51.61891 | -0.33740 | 11697 ft | 300 kts | 265° |
| 2026-05-05 13:07 | 51.61698 | -0.37070 | 11509 ft | 299 kts | 265° |
| 2026-05-05 13:07 | 51.61509 | -0.40343 | 11330 ft | 297 kts | 265° |
| 2026-05-05 13:08 | 51.61316 | -0.43648 | 11123 ft | 296 kts | 265° |
| 2026-05-05 13:08 | 51.61123 | -0.46952 | 10953 ft | 296 kts | 265° |
| 2026-05-05 13:08 | 51.60930 | -0.50238 | 10763 ft | 295 kts | 265° |
| 2026-05-05 13:08 | 51.60735 | -0.53515 | 10586 ft | 294 kts | 265° |
| 2026-05-05 13:09 | 51.60542 | -0.56778 | 10395 ft | 293 kts | 265° |
| 2026-05-05 13:09 | 51.60348 | -0.60032 | 10214 ft | 292 kts | 265° |
| 2026-05-05 13:09 | 51.60154 | -0.63275 | 10038 ft | 291 kts | 265° |
| 2026-05-05 13:09 | 51.59958 | -0.66507 | 9849 ft | 290 kts | 265° |
| 2026-05-05 13:10 | 51.59761 | -0.69729 | 9667 ft | 289 kts | 265° |
| 2026-05-05 13:10 | 51.59438 | -0.72900 | 9475 ft | 289 kts | 252° |
| 2026-05-05 13:10 | 51.58374 | -0.75546 | 9311 ft | 289 kts | 221° |
| 2026-05-05 13:10 | 51.56619 | -0.77068 | 9103 ft | 288 kts | 199° |
| 2026-05-05 13:11 | 51.54736 | -0.78030 | 8898 ft | 279 kts | 197° |
| 2026-05-05 13:11 | 51.52901 | -0.78853 | 8734 ft | 268 kts | 191° |
| 2026-05-05 13:11 | 51.51084 | -0.78854 | 8527 ft | 258 kts | 166° |
| 2026-05-05 13:11 | 51.49497 | -0.77647 | 8289 ft | 250 kts | 143° |
| 2026-05-05 13:12 | 51.48163 | -0.75951 | 8021 ft | 238 kts | 134° |
| 2026-05-05 13:12 | 51.47474 | -0.73735 | 7799 ft | 215 kts | 95° |
| 2026-05-05 13:12 | 51.47472 | -0.71439 | 7594 ft | 199 kts | 86° |
| 2026-05-05 13:12 | 51.47550 | -0.69263 | 7196 ft | 194 kts | 86° |
| 2026-05-05 13:13 | 51.47608 | -0.67135 | 6726 ft | 192 kts | 86° |
| 2026-05-05 13:13 | 51.47646 | -0.65003 | 6236 ft | 190 kts | 87° |
| 2026-05-05 13:13 | 51.47674 | -0.62895 | 5720 ft | 189 kts | 88° |
| 2026-05-05 13:13 | 51.47692 | -0.60789 | 5211 ft | 187 kts | 87° |
| 2026-05-05 13:14 | 51.47704 | -0.58708 | 4707 ft | 186 kts | 86° |
| 2026-05-05 13:14 | 51.47719 | -0.56644 | 4188 ft | 185 kts | 87° |
| 2026-05-05 13:14 | 51.47728 | -0.54584 | 3661 ft | 184 kts | 87° |
| 2026-05-05 13:14 | 51.47736 | -0.52529 | 3208 ft | 182 kts | 87° |
| 2026-05-05 13:15 | 51.47745 | -0.50555 | 3014 ft | 183 kts | 86° |
| 2026-05-05 13:15 | 51.47756 | -0.48423 | 2972 ft | 201 kts | 86° |
| 2026-05-05 13:15 | 51.47677 | -0.45986 | 2950 ft | 237 kts | 93° |
| 2026-05-05 13:15 | 51.47646 | -0.43258 | 2958 ft | 253 kts | 81° |
| 2026-05-05 13:16 | 51.48318 | -0.40699 | 2985 ft | 249 kts | 49° |
| 2026-05-05 13:16 | 51.49613 | -0.38886 | 2989 ft | 247 kts | 39° |
| 2026-05-05 13:16 | 51.50813 | -0.36907 | 2995 ft | 248 kts | 41° |
| 2026-05-05 13:16 | 51.52380 | -0.35813 | 3003 ft | 249 kts | 7° |
| 2026-05-05 13:17 | 51.54085 | -0.36148 | 2989 ft | 251 kts | 340° |
| 2026-05-05 13:17 | 51.55533 | -0.37719 | 2992 ft | 256 kts | 314° |
| 2026-05-05 13:17 | 51.56369 | -0.40201 | 2997 ft | 260 kts | 289° |
| 2026-05-05 13:17 | 51.56797 | -0.43032 | 2989 ft | 262 kts | 284° |
| 2026-05-05 13:18 | 51.57180 | -0.45902 | 2995 ft | 263 kts | 285° |
| 2026-05-05 13:18 | 51.57593 | -0.48764 | 2993 ft | 263 kts | 285° |
| 2026-05-05 13:18 | 51.58022 | -0.51625 | 2991 ft | 263 kts | 287° |
| 2026-05-05 13:18 | 51.58454 | -0.54454 | 2993 ft | 252 kts | 287° |
| 2026-05-05 13:19 | 51.58861 | -0.57087 | 3002 ft | 235 kts | 287° |
| 2026-05-05 13:19 | 51.59247 | -0.59552 | 2995 ft | 219 kts | 286° |
| 2026-05-05 13:19 | 51.59614 | -0.61853 | 3002 ft | 208 kts | 287° |
| 2026-05-05 13:19 | 51.59943 | -0.64113 | 2999 ft | 209 kts | 282° |
| 2026-05-05 13:20 | 51.59987 | -0.66418 | 2990 ft | 205 kts | 269° |
| 2026-05-05 13:20 | 51.59858 | -0.68605 | 3019 ft | 191 kts | 266° |
| 2026-05-05 13:20 | 51.59718 | -0.70714 | 2997 ft | 189 kts | 266° |
| 2026-05-05 13:20 | 51.59434 | -0.72790 | 2993 ft | 192 kts | 251° |
| 2026-05-05 13:21 | 51.58787 | -0.74657 | 2994 ft | 193 kts | 232° |
| 2026-05-05 13:21 | 51.57787 | -0.76080 | 2991 ft | 193 kts | 211° |
| 2026-05-05 13:21 | 51.56556 | -0.76962 | 2991 ft | 194 kts | 198° |
| 2026-05-05 13:21 | 51.55272 | -0.77632 | 2987 ft | 194 kts | 197° |
| 2026-05-05 13:22 | 51.53978 | -0.78295 | 2995 ft | 197 kts | 198° |
| 2026-05-05 13:22 | 51.52673 | -0.78939 | 2987 ft | 196 kts | 194° |
| 2026-05-05 13:22 | 51.51342 | -0.79101 | 2982 ft | 194 kts | 169° |
| 2026-05-05 13:22 | 51.50151 | -0.78371 | 2997 ft | 176 kts | 143° |
| 2026-05-05 13:23 | 51.49189 | -0.77249 | 3004 ft | 169 kts | 137° |
| 2026-05-05 13:23 | 51.48296 | -0.76023 | 2991 ft | 168 kts | 129° |
| 2026-05-05 13:23 | 51.47774 | -0.74394 | 2989 ft | 163 kts | 105° |
| 2026-05-05 13:23 | 51.47602 | -0.72620 | 2996 ft | 159 kts | 85° |
| 2026-05-05 13:24 | 51.47616 | -0.70884 | 2892 ft | 152 kts | 88° |
| 2026-05-05 13:24 | 51.47600 | -0.69223 | 2683 ft | 146 kts | 85° |
| 2026-05-05 13:24 | 51.47611 | -0.67629 | 2478 ft | 140 kts | 85° |
| 2026-05-05 13:24 | 51.47622 | -0.66068 | 2282 ft | 140 kts | 86° |
| 2026-05-05 13:25 | 51.47629 | -0.64508 | 2090 ft | 139 kts | 85° |
| 2026-05-05 13:25 | 51.47638 | -0.62964 | 1900 ft | 141 kts | 85° |
| 2026-05-05 13:25 | 51.47649 | -0.61396 | 1722 ft | 141 kts | 86° |
| 2026-05-05 13:25 | 51.47659 | -0.59825 | 1510 ft | 141 kts | 86° |
| 2026-05-05 13:26 | 51.47668 | -0.58256 | 1325 ft | 140 kts | 84° |
| 2026-05-05 13:26 | 51.47680 | -0.56693 | 1139 ft | 142 kts | 86° |
| 2026-05-05 13:26 | 51.47689 | -0.55138 | 947 ft | 138 kts | 85° |
| 2026-05-05 13:26 | 51.47699 | -0.53590 | 753 ft | 139 kts | 86° |
| 2026-05-05 13:27 | 51.47709 | -0.52038 | 573 ft | 139 kts | 85° |
| 2026-05-05 13:27 | 51.47718 | -0.50504 | 363 ft | 139 kts | 85° |
| 2026-05-05 13:27 | 51.47737 | -0.48979 | 229 ft | 138 kts | 86° |
| 2026-05-05 13:27 | 51.47759 | -0.47461 | 96 ft | 132 kts | 89° |
| 2026-05-05 13:28 | 51.47759 | -0.46195 | 100 ft | 94 kts | 90° |
| 2026-05-05 13:28 | 51.47760 | -0.45363 | 97 ft | 57 kts | 89° |
| 2026-05-05 13:28 | 51.47760 | -0.44944 | 101 ft | 19 kts | 95° |
| 2026-05-05 13:28 | 51.47715 | -0.44848 | 102 ft | 10 kts | 153° |
| 2026-05-05 13:29 | 51.47645 | -0.44791 | 105 ft | 13 kts | 153° |
| 2026-05-05 13:29 | 51.47599 | -0.44696 | 102 ft | 10 kts | 121° |
| 2026-05-05 13:29 | 51.47554 | -0.44662 | 101 ft | 5 kts | 180° |
| 2026-05-05 13:29 | 51.47519 | -0.44652 | 97 ft | 7 kts | 152° |
| 2026-05-05 13:30 | 51.47506 | -0.44591 | 101 ft | 7 kts | 97° |
| 2026-05-05 13:30 | 51.47501 | -0.44503 | 97 ft | 10 kts | 93° |
| 2026-05-05 13:30 | 51.47501 | -0.44376 | 95 ft | 13 kts | 87° |
| 2026-05-05 13:30 | 51.47506 | -0.44219 | 98 ft | 15 kts | 88° |
| 2026-05-05 13:31 | 51.47493 | -0.44082 | 99 ft | 8 kts | 134° |
| 2026-05-05 13:31 | 51.47434 | -0.44059 | 98 ft | 9 kts | 169° |
| 2026-05-05 13:31 | 51.47408 | -0.44005 | 98 ft | 7 kts | 102° |
| 2026-05-05 13:31 | 51.47410 | -0.43933 | 100 ft | 5 kts | 89° |
| 2026-05-05 13:32 | 51.47410 | -0.43915 | 100 ft | 0 kts | 89° |